Ida, MI (48140)

1:06 AM EST on February 12, 2016 (GMT -0500)
Jackman near Morocco, Ida, MI | | Change Station
CLOSE
Current Station
Personal Weather Station
Location: Michigan, MI
Elevation: 643 ft
Nearby Weather Stations

Elev 643 ft 41.84 °N, 83.59 °W | Updated 6 seconds ago

Clear
Clear
9.3 °F
Feels Like 9 °F
N
0.0
Wind Variable Wind from SW
Gusts 2.7 mph

Today
High -- | Low -- °F
--% Chance of Precip.
Yesterday
High -- | Low -- °F
Precip. -- in
Pressure 30.22 in
Visibility 10.0 miles
Clouds Clear
Windchill 9 °F
Dew Point 7 °F
Humidity 90%
Rainfall 0.00 in
Snow Depth Not available.
7:34 AM 6:03 PM
Waxing Crescent, 17% visible
METAR KTTF 120554Z AUTO 24003KT 10SM CLR M11/M15 A3022 RMK AO2 T11091150 11081 21109
Pressure 30.22 in
Visibility 10.0 miles
Clouds Clear
Windchill 9 °F
Dew Point 7 °F
Humidity 90%
Rainfall 0.00 in
Snow Depth Not available.
7:34 AM 6:03 PM
Waxing Crescent, 17% visible
METAR KTTF 120554Z AUTO 24003KT 10SM CLR M11/M15 A3022 RMK AO2 T11091150 11081 21109

10-Day Weather Forecast

Almanac

Astronomy

Feb. 12, 2016 Rise Set
Actual Time
Civil Twilight
Nautical Twilight
Astronomical Twilight
Moon
Length of Visible Light
Length of Day
Tomorrow will be .
, % of the Moon is Illuminated

Today's Extremes

State Highs State Lows

Community

WunderPhotos

Upload Photos

1,892,270 photos uploaded!

WunderBlog® & News

Nearby

Air Quality

  Air Quality AQ Index Pollutant
Not available.

Snow Depth

Station Depth Elevation

Earthquake Activity

City Distance Mag. Time & Date
Minimum magnitude displayed is 2.5.

Coastal Water Temperatures

Place Temperature

Stations

Nearby Weather Stations

Station Location Temp. Windchill Dew Point Humidity Wind Precip. Elev Updated Type
                   

Watches & Warnings

There are currently no watches in effect.